sensor_id;sensor_type;location;lat;lon;timestamp;P1;durP1;ratioP1;P2;durP2;ratioP2
50231;SDS011;36118;56.468;84.952;2022-08-11T00:01:20;27.25;;;15.40;;
50231;SDS011;36118;56.468;84.952;2022-08-11T00:06:33;31.90;;;15.68;;
50231;SDS011;36118;56.468;84.952;2022-08-11T00:11:39;24.50;;;14.73;;
50231;SDS011;36118;56.468;84.952;2022-08-11T00:16:54;30.35;;;14.63;;
50231;SDS011;36118;56.468;84.952;2022-08-11T00:22:03;30.60;;;14.10;;
50231;SDS011;36118;56.468;84.952;2022-08-11T00:27:07;25.55;;;13.73;;
50231;SDS011;36118;56.468;84.952;2022-08-11T00:32:15;25.95;;;14.05;;
50231;SDS011;36118;56.468;84.952;2022-08-11T00:37:19;23.75;;;12.90;;
50231;SDS011;36118;56.468;84.952;2022-08-11T00:42:34;23.25;;;13.25;;
50231;SDS011;36118;56.468;84.952;2022-08-11T00:48:06;27.42;;;13.27;;
50231;SDS011;36118;56.468;84.952;2022-08-11T00:53:35;26.52;;;14.23;;
50231;SDS011;36118;56.468;84.952;2022-08-11T01:26:53;19.38;;;11.10;;
50231;SDS011;36118;56.468;84.952;2022-08-11T01:53:46;24.45;;;13.13;;
50231;SDS011;36118;56.468;84.952;2022-08-11T02:15:02;20.48;;;11.63;;
50231;SDS011;36118;56.468;84.952;2022-08-11T02:20:15;22.13;;;10.63;;
50231;SDS011;36118;56.468;84.952;2022-08-11T02:26:24;24.90;;;12.10;;
50231;SDS011;36118;56.468;84.952;2022-08-11T02:37:19;25.52;;;12.13;;
50231;SDS011;36118;56.468;84.952;2022-08-11T02:53:29;27.05;;;12.82;;
50231;SDS011;36118;56.468;84.952;2022-08-11T03:15:47;24.70;;;13.57;;
50231;SDS011;36118;56.468;84.952;2022-08-11T03:21:22;22.33;;;13.70;;
50231;SDS011;36118;56.468;84.952;2022-08-11T03:31:58;22.92;;;12.80;;
50231;SDS011;36118;56.468;84.952;2022-08-11T03:42:49;16.08;;;9.68;;
50231;SDS011;36118;56.468;84.952;2022-08-11T03:53:38;16.67;;;10.80;;
50231;SDS011;36118;56.468;84.952;2022-08-11T04:10:03;22.55;;;12.13;;
50231;SDS011;36118;56.468;84.952;2022-08-11T04:15:22;16.23;;;11.27;;
50231;SDS011;36118;56.468;84.952;2022-08-11T04:37:14;14.82;;;11.20;;
50231;SDS011;36118;56.468;84.952;2022-08-11T04:48:26;15.48;;;11.52;;
50231;SDS011;36118;56.468;84.952;2022-08-11T05:00:11;14.70;;;11.57;;
50231;SDS011;36118;56.468;84.952;2022-08-11T05:16:23;16.05;;;13.88;;
50231;SDS011;36118;56.468;84.952;2022-08-11T05:21:53;22.60;;;14.73;;
50231;SDS011;36118;56.468;84.952;2022-08-11T05:27:17;18.98;;;15.65;;
50231;SDS011;36118;56.468;84.952;2022-08-11T05:32:41;18.50;;;15.15;;
50231;SDS011;36118;56.468;84.952;2022-08-11T05:38:03;23.55;;;17.30;;
50231;SDS011;36118;56.468;84.952;2022-08-11T05:43:31;20.70;;;15.48;;
50231;SDS011;36118;56.468;84.952;2022-08-11T05:49:13;28.20;;;17.30;;
50231;SDS011;36118;56.468;84.952;2022-08-11T05:54:35;23.67;;;17.95;;
50231;SDS011;36118;56.468;84.952;2022-08-11T05:59:59;23.90;;;16.10;;
50231;SDS011;36118;56.468;84.952;2022-08-11T06:05:11;17.45;;;14.13;;
50231;SDS011;36118;56.468;84.952;2022-08-11T06:10:25;16.60;;;13.15;;
50231;SDS011;36118;56.468;84.952;2022-08-11T06:15:32;16.13;;;12.00;;
50231;SDS011;36118;56.468;84.952;2022-08-11T06:20:44;15.18;;;11.77;;
50231;SDS011;36118;56.468;84.952;2022-08-11T06:25:51;17.48;;;13.85;;
50231;SDS011;36118;56.468;84.952;2022-08-11T06:30:57;20.33;;;14.15;;
50231;SDS011;36118;56.468;84.952;2022-08-11T06:36:12;17.77;;;13.70;;
50231;SDS011;36118;56.468;84.952;2022-08-11T06:46:51;15.30;;;13.70;;
50231;SDS011;36118;56.468;84.952;2022-08-11T06:51:59;18.33;;;14.30;;
50231;SDS011;36118;56.468;84.952;2022-08-11T06:57:06;15.65;;;13.88;;
50231;SDS011;36118;56.468;84.952;2022-08-11T07:13:37;16.85;;;13.68;;
50231;SDS011;36118;56.468;84.952;2022-08-11T07:19:03;17.23;;;14.32;;
50231;SDS011;36118;56.468;84.952;2022-08-11T07:24:47;19.35;;;14.18;;
50231;SDS011;36118;56.468;84.952;2022-08-11T07:30:13;20.42;;;14.40;;
50231;SDS011;36118;56.468;84.952;2022-08-11T07:35:16;16.75;;;13.65;;
50231;SDS011;36118;56.468;84.952;2022-08-11T07:40:29;17.42;;;13.43;;
50231;SDS011;36118;56.468;84.952;2022-08-11T07:45:32;19.85;;;13.85;;
50231;SDS011;36118;56.468;84.952;2022-08-11T07:50:53;16.98;;;13.20;;
50231;SDS011;36118;56.468;84.952;2022-08-11T07:56:15;15.55;;;13.05;;
50231;SDS011;36118;56.468;84.952;2022-08-11T08:01:40;17.05;;;13.02;;
50231;SDS011;36118;56.468;84.952;2022-08-11T08:07:03;18.05;;;13.45;;
50231;SDS011;36118;56.468;84.952;2022-08-11T08:12:25;17.30;;;13.70;;
50231;SDS011;36118;56.468;84.952;2022-08-11T08:17:46;20.00;;;14.23;;
50231;SDS011;36118;56.468;84.952;2022-08-11T08:23:18;16.20;;;14.05;;
50231;SDS011;36118;56.468;84.952;2022-08-11T08:28:34;16.98;;;13.52;;
50231;SDS011;36118;56.468;84.952;2022-08-11T08:33:37;16.42;;;13.32;;
50231;SDS011;36118;56.468;84.952;2022-08-11T08:38:47;15.93;;;12.67;;
50231;SDS011;36118;56.468;84.952;2022-08-11T08:43:52;13.13;;;11.48;;
50231;SDS011;36118;56.468;84.952;2022-08-11T08:49:18;16.20;;;11.93;;
50231;SDS011;36118;56.468;84.952;2022-08-11T08:54:29;14.63;;;10.68;;
50231;SDS011;36118;56.468;84.952;2022-08-11T08:59:39;16.48;;;11.73;;
50231;SDS011;36118;56.468;84.952;2022-08-11T09:04:50;15.07;;;12.25;;
50231;SDS011;36118;56.468;84.952;2022-08-11T09:09:55;15.93;;;11.90;;
50231;SDS011;36118;56.468;84.952;2022-08-11T09:14:58;14.55;;;11.57;;
50231;SDS011;36118;56.468;84.952;2022-08-11T09:20:08;19.83;;;13.27;;
50231;SDS011;36118;56.468;84.952;2022-08-11T09:25:14;15.43;;;12.45;;
50231;SDS011;36118;56.468;84.952;2022-08-11T09:30:36;17.83;;;12.75;;
50231;SDS011;36118;56.468;84.952;2022-08-11T09:35:44;18.35;;;11.65;;
50231;SDS011;36118;56.468;84.952;2022-08-11T09:40:48;17.97;;;12.93;;
50231;SDS011;36118;56.468;84.952;2022-08-11T09:45:58;18.52;;;13.55;;
50231;SDS011;36118;56.468;84.952;2022-08-11T09:51:02;18.40;;;15.00;;
50231;SDS011;36118;56.468;84.952;2022-08-11T09:56:15;16.55;;;14.70;;
50231;SDS011;36118;56.468;84.952;2022-08-11T10:02:00;21.02;;;16.58;;
50231;SDS011;36118;56.468;84.952;2022-08-11T10:07:04;22.75;;;17.50;;
50231;SDS011;36118;56.468;84.952;2022-08-11T10:12:12;24.38;;;17.63;;
50231;SDS011;36118;56.468;84.952;2022-08-11T10:17:18;24.48;;;18.40;;
50231;SDS011;36118;56.468;84.952;2022-08-11T10:22:22;26.38;;;22.10;;
50231;SDS011;36118;56.468;84.952;2022-08-11T10:27:43;29.77;;;23.27;;
50231;SDS011;36118;56.468;84.952;2022-08-11T10:33:06;31.45;;;22.98;;
50231;SDS011;36118;56.468;84.952;2022-08-11T10:38:44;28.23;;;20.48;;
50231;SDS011;36118;56.468;84.952;2022-08-11T10:43:48;32.87;;;27.83;;
50231;SDS011;36118;56.468;84.952;2022-08-11T10:49:04;37.22;;;28.48;;
50231;SDS011;36118;56.468;84.952;2022-08-11T10:54:08;40.03;;;27.63;;
50231;SDS011;36118;56.468;84.952;2022-08-11T10:59:29;44.92;;;33.03;;
50231;SDS011;36118;56.468;84.952;2022-08-11T11:04:40;45.08;;;36.53;;
50231;SDS011;36118;56.468;84.952;2022-08-11T11:10:00;50.28;;;37.78;;
50231;SDS011;36118;56.468;84.952;2022-08-11T11:15:04;44.47;;;32.38;;
50231;SDS011;36118;56.468;84.952;2022-08-11T11:20:27;49.35;;;38.22;;
50231;SDS011;36118;56.468;84.952;2022-08-11T11:37:04;45.58;;;35.47;;
50231;SDS011;36118;56.468;84.952;2022-08-11T11:42:08;44.15;;;33.42;;
50231;SDS011;36118;56.468;84.952;2022-08-11T11:47:12;41.85;;;31.35;;
50231;SDS011;36118;56.468;84.952;2022-08-11T11:52:16;40.05;;;29.17;;
50231;SDS011;36118;56.468;84.952;2022-08-11T11:57:21;42.22;;;30.38;;
50231;SDS011;36118;56.468;84.952;2022-08-11T12:03:05;38.28;;;28.98;;
50231;SDS011;36118;56.468;84.952;2022-08-11T12:08:12;40.28;;;29.80;;
50231;SDS011;36118;56.468;84.952;2022-08-11T12:13:21;38.53;;;24.85;;
50231;SDS011;36118;56.468;84.952;2022-08-11T12:18:42;41.85;;;30.42;;
50231;SDS011;36118;56.468;84.952;2022-08-11T12:23:53;44.05;;;31.75;;
50231;SDS011;36118;56.468;84.952;2022-08-11T12:29:16;41.63;;;29.48;;
50231;SDS011;36118;56.468;84.952;2022-08-11T12:34:21;35.08;;;24.23;;
50231;SDS011;36118;56.468;84.952;2022-08-11T12:39:32;41.20;;;27.95;;
50231;SDS011;36118;56.468;84.952;2022-08-11T12:50:29;42.65;;;30.90;;
50231;SDS011;36118;56.468;84.952;2022-08-11T12:55:51;46.83;;;31.75;;
50231;SDS011;36118;56.468;84.952;2022-08-11T13:01:14;40.95;;;27.95;;
50231;SDS011;36118;56.468;84.952;2022-08-11T13:06:36;44.05;;;27.85;;
50231;SDS011;36118;56.468;84.952;2022-08-11T13:11:39;40.72;;;26.17;;
50231;SDS011;36118;56.468;84.952;2022-08-11T13:17:01;34.72;;;21.55;;
50231;SDS011;36118;56.468;84.952;2022-08-11T13:22:45;28.35;;;19.42;;
50231;SDS011;36118;56.468;84.952;2022-08-11T13:27:52;28.58;;;17.95;;
50231;SDS011;36118;56.468;84.952;2022-08-11T13:33:01;27.42;;;19.20;;
50231;SDS011;36118;56.468;84.952;2022-08-11T13:38:06;26.48;;;16.65;;
50231;SDS011;36118;56.468;84.952;2022-08-11T13:43:21;25.55;;;15.48;;
50231;SDS011;36118;56.468;84.952;2022-08-11T13:48:24;34.38;;;15.85;;
50231;SDS011;36118;56.468;84.952;2022-08-11T13:53:31;24.90;;;15.85;;
50231;SDS011;36118;56.468;84.952;2022-08-11T13:58:34;32.63;;;17.33;;
50231;SDS011;36118;56.468;84.952;2022-08-11T14:03:41;25.30;;;16.83;;
50231;SDS011;36118;56.468;84.952;2022-08-11T14:09:06;23.00;;;13.13;;
50231;SDS011;36118;56.468;84.952;2022-08-11T14:14:16;23.50;;;15.25;;
50231;SDS011;36118;56.468;84.952;2022-08-11T14:19:24;26.00;;;14.30;;
50231;SDS011;36118;56.468;84.952;2022-08-11T14:24:30;24.85;;;13.32;;
50231;SDS011;36118;56.468;84.952;2022-08-11T14:29:35;24.80;;;13.07;;
50231;SDS011;36118;56.468;84.952;2022-08-11T14:34:49;26.37;;;12.40;;
50231;SDS011;36118;56.468;84.952;2022-08-11T14:39:53;27.13;;;11.57;;
50231;SDS011;36118;56.468;84.952;2022-08-11T14:45:06;22.85;;;11.93;;
50231;SDS011;36118;56.468;84.952;2022-08-11T14:50:49;18.33;;;10.25;;
50231;SDS011;36118;56.468;84.952;2022-08-11T14:55:52;17.02;;;10.13;;
50231;SDS011;36118;56.468;84.952;2022-08-11T15:01:14;15.38;;;8.73;;
50231;SDS011;36118;56.468;84.952;2022-08-11T15:06:35;17.42;;;9.25;;
50231;SDS011;36118;56.468;84.952;2022-08-11T15:11:38;13.70;;;9.20;;
50231;SDS011;36118;56.468;84.952;2022-08-11T15:17:01;18.42;;;10.27;;
50231;SDS011;36118;56.468;84.952;2022-08-11T15:22:10;16.38;;;11.20;;
50231;SDS011;36118;56.468;84.952;2022-08-11T15:27:31;14.90;;;11.48;;
50231;SDS011;36118;56.468;84.952;2022-08-11T15:32:53;17.45;;;11.00;;
50231;SDS011;36118;56.468;84.952;2022-08-11T15:38:15;22.25;;;12.38;;
50231;SDS011;36118;56.468;84.952;2022-08-11T15:49:00;22.38;;;11.75;;
50231;SDS011;36118;56.468;84.952;2022-08-11T15:54:09;17.23;;;11.30;;
50231;SDS011;36118;56.468;84.952;2022-08-11T15:59:15;16.75;;;11.00;;
50231;SDS011;36118;56.468;84.952;2022-08-11T16:04:44;14.70;;;9.20;;
50231;SDS011;36118;56.468;84.952;2022-08-11T16:15:02;14.30;;;7.15;;
50231;SDS011;36118;56.468;84.952;2022-08-11T16:20:27;12.27;;;7.07;;
50231;SDS011;36118;56.468;84.952;2022-08-11T16:25:34;17.40;;;6.85;;
50231;SDS011;36118;56.468;84.952;2022-08-11T16:30:57;19.13;;;6.50;;
50231;SDS011;36118;56.468;84.952;2022-08-11T16:36:00;12.32;;;5.90;;
50231;SDS011;36118;56.468;84.952;2022-08-11T16:41:25;12.82;;;5.63;;
50231;SDS011;36118;56.468;84.952;2022-08-11T16:46:48;10.90;;;5.38;;
50231;SDS011;36118;56.468;84.952;2022-08-11T16:52:02;8.88;;;5.18;;
50231;SDS011;36118;56.468;84.952;2022-08-11T16:57:12;7.50;;;4.70;;
50231;SDS011;36118;56.468;84.952;2022-08-11T17:02:52;9.75;;;5.00;;
50231;SDS011;36118;56.468;84.952;2022-08-11T17:08:16;8.90;;;3.88;;
50231;SDS011;36118;56.468;84.952;2022-08-11T17:13:47;9.48;;;4.32;;
50231;SDS011;36118;56.468;84.952;2022-08-11T17:18:56;9.88;;;4.43;;
50231;SDS011;36118;56.468;84.952;2022-08-11T17:24:08;7.13;;;3.80;;
50231;SDS011;36118;56.468;84.952;2022-08-11T17:29:16;10.88;;;4.07;;
50231;SDS011;36118;56.468;84.952;2022-08-11T17:34:58;7.18;;;4.03;;
50231;SDS011;36118;56.468;84.952;2022-08-11T17:40:22;7.82;;;3.40;;
50231;SDS011;36118;56.468;84.952;2022-08-11T17:45:27;9.83;;;4.03;;
50231;SDS011;36118;56.468;84.952;2022-08-11T17:51:10;7.60;;;3.38;;
50231;SDS011;36118;56.468;84.952;2022-08-11T17:56:14;6.85;;;3.38;;
50231;SDS011;36118;56.468;84.952;2022-08-11T18:01:36;7.13;;;3.33;;
50231;SDS011;36118;56.468;84.952;2022-08-11T18:06:41;6.68;;;3.05;;
50231;SDS011;36118;56.468;84.952;2022-08-11T18:11:45;10.90;;;4.00;;
50231;SDS011;36118;56.468;84.952;2022-08-11T18:17:13;9.52;;;3.38;;
50231;SDS011;36118;56.468;84.952;2022-08-11T18:22:39;10.13;;;3.85;;
50231;SDS011;36118;56.468;84.952;2022-08-11T18:28:02;15.55;;;4.05;;
50231;SDS011;36118;56.468;84.952;2022-08-11T18:33:32;8.82;;;3.15;;
50231;SDS011;36118;56.468;84.952;2022-08-11T18:39:09;8.88;;;3.00;;
50231;SDS011;36118;56.468;84.952;2022-08-11T18:44:32;11.63;;;3.22;;
50231;SDS011;36118;56.468;84.952;2022-08-11T18:49:55;7.55;;;2.90;;
50231;SDS011;36118;56.468;84.952;2022-08-11T18:55:30;10.50;;;2.95;;
50231;SDS011;36118;56.468;84.952;2022-08-11T19:00:53;5.20;;;2.70;;
50231;SDS011;36118;56.468;84.952;2022-08-11T19:06:17;9.88;;;3.20;;
50231;SDS011;36118;56.468;84.952;2022-08-11T19:11:42;8.45;;;2.78;;
50231;SDS011;36118;56.468;84.952;2022-08-11T19:17:05;7.55;;;2.50;;
50231;SDS011;36118;56.468;84.952;2022-08-11T19:22:46;10.10;;;2.65;;
50231;SDS011;36118;56.468;84.952;2022-08-11T19:28:08;7.50;;;2.38;;
50231;SDS011;36118;56.468;84.952;2022-08-11T19:33:29;7.35;;;2.15;;
50231;SDS011;36118;56.468;84.952;2022-08-11T19:39:11;9.98;;;2.53;;
50231;SDS011;36118;56.468;84.952;2022-08-11T19:44:33;6.78;;;2.20;;
50231;SDS011;36118;56.468;84.952;2022-08-11T19:49:55;6.82;;;1.98;;
50231;SDS011;36118;56.468;84.952;2022-08-11T19:55:25;6.78;;;2.17;;
50231;SDS011;36118;56.468;84.952;2022-08-11T20:00:47;4.30;;;1.77;;
50231;SDS011;36118;56.468;84.952;2022-08-11T20:06:08;7.80;;;1.80;;
50231;SDS011;36118;56.468;84.952;2022-08-11T20:11:36;5.40;;;1.50;;
50231;SDS011;36118;56.468;84.952;2022-08-11T20:17:00;6.78;;;1.63;;
50231;SDS011;36118;56.468;84.952;2022-08-11T20:22:26;6.18;;;1.60;;
50231;SDS011;36118;56.468;84.952;2022-08-11T20:27:49;7.82;;;1.77;;
50231;SDS011;36118;56.468;84.952;2022-08-11T20:33:11;4.57;;;1.40;;
50231;SDS011;36118;56.468;84.952;2022-08-11T20:38:33;6.70;;;1.50;;
50231;SDS011;36118;56.468;84.952;2022-08-11T20:43:57;5.18;;;1.45;;
50231;SDS011;36118;56.468;84.952;2022-08-11T20:49:19;7.85;;;1.77;;
50231;SDS011;36118;56.468;84.952;2022-08-11T20:54:57;4.90;;;1.60;;
50231;SDS011;36118;56.468;84.952;2022-08-11T21:00:26;4.43;;;1.30;;
50231;SDS011;36118;56.468;84.952;2022-08-11T21:05:49;7.07;;;1.30;;
50231;SDS011;36118;56.468;84.952;2022-08-11T21:11:12;10.23;;;1.48;;
50231;SDS011;36118;56.468;84.952;2022-08-11T21:16:35;5.95;;;1.50;;
50231;SDS011;36118;56.468;84.952;2022-08-11T21:21:57;4.75;;;1.58;;
50231;SDS011;36118;56.468;84.952;2022-08-11T21:27:28;5.22;;;1.33;;
50231;SDS011;36118;56.468;84.952;2022-08-11T21:32:52;2.60;;;1.17;;
50231;SDS011;36118;56.468;84.952;2022-08-11T21:38:15;3.47;;;1.30;;
50231;SDS011;36118;56.468;84.952;2022-08-11T21:43:37;3.85;;;1.30;;
50231;SDS011;36118;56.468;84.952;2022-08-11T21:49:00;2.92;;;1.40;;
50231;SDS011;36118;56.468;84.952;2022-08-11T21:54:22;4.32;;;1.25;;
50231;SDS011;36118;56.468;84.952;2022-08-11T22:05:17;4.18;;;1.30;;
50231;SDS011;36118;56.468;84.952;2022-08-11T22:10:39;4.70;;;1.40;;
50231;SDS011;36118;56.468;84.952;2022-08-11T22:16:00;4.57;;;1.20;;
50231;SDS011;36118;56.468;84.952;2022-08-11T22:21:22;3.65;;;1.50;;
50231;SDS011;36118;56.468;84.952;2022-08-11T22:27:04;7.00;;;1.60;;
50231;SDS011;36118;56.468;84.952;2022-08-11T22:32:25;5.22;;;1.60;;
50231;SDS011;36118;56.468;84.952;2022-08-11T22:37:47;3.60;;;1.40;;
50231;SDS011;36118;56.468;84.952;2022-08-11T22:43:09;3.38;;;1.20;;
50231;SDS011;36118;56.468;84.952;2022-08-11T22:48:30;4.13;;;1.48;;
50231;SDS011;36118;56.468;84.952;2022-08-11T22:53:52;6.28;;;2.97;;
50231;SDS011;36118;56.468;84.952;2022-08-11T22:59:14;5.20;;;1.20;;
50231;SDS011;36118;56.468;84.952;2022-08-11T23:04:37;4.57;;;1.48;;
50231;SDS011;36118;56.468;84.952;2022-08-11T23:09:58;2.97;;;1.40;;
50231;SDS011;36118;56.468;84.952;2022-08-11T23:15:19;4.00;;;1.30;;
50231;SDS011;36118;56.468;84.952;2022-08-11T23:20:43;3.70;;;1.30;;
50231;SDS011;36118;56.468;84.952;2022-08-11T23:26:05;5.72;;;1.52;;
50231;SDS011;36118;56.468;84.952;2022-08-11T23:31:31;5.72;;;1.90;;
50231;SDS011;36118;56.468;84.952;2022-08-11T23:36:54;4.18;;;1.60;;
50231;SDS011;36118;56.468;84.952;2022-08-11T23:42:15;6.47;;;1.65;;
50231;SDS011;36118;56.468;84.952;2022-08-11T23:47:37;4.72;;;1.30;;
50231;SDS011;36118;56.468;84.952;2022-08-11T23:52:59;8.45;;;1.40;;
50231;SDS011;36118;56.468;84.952;2022-08-11T23:58:21;5.18;;;1.40;;
